sensor_id;sensor_type;location;lat;lon;timestamp;P1;durP1;ratioP1;P2;durP2;ratioP2
22648;SDS011;11491;41.942;24.220;2023-09-19T00:00:07;7.30;;;6.32;;
22648;SDS011;11491;41.942;24.220;2023-09-19T00:02:37;8.60;;;6.57;;
22648;SDS011;11491;41.942;24.220;2023-09-19T00:05:04;7.60;;;6.30;;
22648;SDS011;11491;41.942;24.220;2023-09-19T00:07:32;8.02;;;5.82;;
22648;SDS011;11491;41.942;24.220;2023-09-19T00:10:01;7.57;;;6.32;;
22648;SDS011;11491;41.942;24.220;2023-09-19T00:12:31;9.77;;;6.65;;
22648;SDS011;11491;41.942;24.220;2023-09-19T00:14:58;8.50;;;6.35;;
22648;SDS011;11491;41.942;24.220;2023-09-19T00:17:27;10.88;;;6.90;;
22648;SDS011;11491;41.942;24.220;2023-09-19T00:19:55;8.85;;;6.07;;
22648;SDS011;11491;41.942;24.220;2023-09-19T00:22:23;8.57;;;6.45;;
22648;SDS011;11491;41.942;24.220;2023-09-19T00:24:51;7.05;;;6.07;;
22648;SDS011;11491;41.942;24.220;2023-09-19T00:27:18;7.20;;;6.15;;
22648;SDS011;11491;41.942;24.220;2023-09-19T00:29:44;7.05;;;6.32;;
22648;SDS011;11491;41.942;24.220;2023-09-19T00:32:11;9.73;;;6.43;;
22648;SDS011;11491;41.942;24.220;2023-09-19T00:34:39;7.93;;;5.72;;
22648;SDS011;11491;41.942;24.220;2023-09-19T00:37:07;10.13;;;6.53;;
22648;SDS011;11491;41.942;24.220;2023-09-19T00:39:36;7.65;;;6.28;;
22648;SDS011;11491;41.942;24.220;2023-09-19T00:42:03;7.00;;;6.20;;
22648;SDS011;11491;41.942;24.220;2023-09-19T00:44:30;12.55;;;6.10;;
22648;SDS011;11491;41.942;24.220;2023-09-19T00:46:59;8.05;;;6.15;;
22648;SDS011;11491;41.942;24.220;2023-09-19T00:49:27;7.55;;;6.60;;
22648;SDS011;11491;41.942;24.220;2023-09-19T00:51:57;6.45;;;5.32;;
22648;SDS011;11491;41.942;24.220;2023-09-19T00:54:25;6.82;;;5.97;;
22648;SDS011;11491;41.942;24.220;2023-09-19T00:56:54;6.20;;;5.47;;
22648;SDS011;11491;41.942;24.220;2023-09-19T00:59:22;9.48;;;6.50;;
22648;SDS011;11491;41.942;24.220;2023-09-19T01:01:49;8.82;;;6.18;;
22648;SDS011;11491;41.942;24.220;2023-09-19T01:04:19;7.75;;;5.80;;
22648;SDS011;11491;41.942;24.220;2023-09-19T01:06:46;7.55;;;5.60;;
22648;SDS011;11491;41.942;24.220;2023-09-19T01:09:19;7.90;;;5.70;;
22648;SDS011;11491;41.942;24.220;2023-09-19T01:11:47;7.47;;;6.15;;
22648;SDS011;11491;41.942;24.220;2023-09-19T01:14:20;8.32;;;5.85;;
22648;SDS011;11491;41.942;24.220;2023-09-19T01:16:56;6.93;;;5.70;;
22648;SDS011;11491;41.942;24.220;2023-09-19T01:22:57;7.75;;;5.43;;
22648;SDS011;11491;41.942;24.220;2023-09-19T01:25:47;7.72;;;5.75;;
22648;SDS011;11491;41.942;24.220;2023-09-19T01:28:34;8.65;;;6.03;;
22648;SDS011;11491;41.942;24.220;2023-09-19T01:31:13;7.72;;;5.97;;
22648;SDS011;11491;41.942;24.220;2023-09-19T01:33:53;9.30;;;6.22;;
22648;SDS011;11491;41.942;24.220;2023-09-19T01:36:22;6.93;;;6.22;;
22648;SDS011;11491;41.942;24.220;2023-09-19T01:38:49;6.90;;;5.93;;
22648;SDS011;11491;41.942;24.220;2023-09-19T01:41:17;8.35;;;6.28;;
22648;SDS011;11491;41.942;24.220;2023-09-19T01:43:52;8.48;;;6.60;;
22648;SDS011;11491;41.942;24.220;2023-09-19T01:46:21;10.88;;;6.65;;
22648;SDS011;11491;41.942;24.220;2023-09-19T01:48:54;8.82;;;6.50;;
22648;SDS011;11491;41.942;24.220;2023-09-19T01:51:32;9.82;;;7.18;;
22648;SDS011;11491;41.942;24.220;2023-09-19T01:54:03;7.47;;;6.25;;
22648;SDS011;11491;41.942;24.220;2023-09-19T01:56:36;10.10;;;6.55;;
22648;SDS011;11491;41.942;24.220;2023-09-19T01:59:10;10.20;;;6.45;;
22648;SDS011;11491;41.942;24.220;2023-09-19T02:01:41;8.95;;;6.50;;
22648;SDS011;11491;41.942;24.220;2023-09-19T02:04:11;12.05;;;6.45;;
22648;SDS011;11491;41.942;24.220;2023-09-19T02:06:39;7.15;;;6.10;;
22648;SDS011;11491;41.942;24.220;2023-09-19T02:09:06;8.95;;;7.05;;
22648;SDS011;11491;41.942;24.220;2023-09-19T02:11:34;8.52;;;7.05;;
22648;SDS011;11491;41.942;24.220;2023-09-19T02:14:01;8.73;;;6.80;;
22648;SDS011;11491;41.942;24.220;2023-09-19T02:16:29;8.50;;;7.25;;
22648;SDS011;11491;41.942;24.220;2023-09-19T02:18:57;9.55;;;8.55;;
22648;SDS011;11491;41.942;24.220;2023-09-19T02:21:25;12.63;;;9.60;;
22648;SDS011;11491;41.942;24.220;2023-09-19T02:23:54;12.55;;;8.45;;
22648;SDS011;11491;41.942;24.220;2023-09-19T02:26:21;11.13;;;7.72;;
22648;SDS011;11491;41.942;24.220;2023-09-19T02:28:49;7.43;;;6.18;;
22648;SDS011;11491;41.942;24.220;2023-09-19T02:31:16;8.90;;;6.72;;
22648;SDS011;11491;41.942;24.220;2023-09-19T02:33:43;7.15;;;6.13;;
22648;SDS011;11491;41.942;24.220;2023-09-19T02:36:12;8.73;;;6.13;;
22648;SDS011;11491;41.942;24.220;2023-09-19T02:38:42;11.60;;;7.00;;
22648;SDS011;11491;41.942;24.220;2023-09-19T02:41:09;8.90;;;6.57;;
22648;SDS011;11491;41.942;24.220;2023-09-19T02:43:36;9.40;;;7.05;;
22648;SDS011;11491;41.942;24.220;2023-09-19T02:46:03;8.63;;;6.85;;
22648;SDS011;11491;41.942;24.220;2023-09-19T02:48:29;8.43;;;6.70;;
22648;SDS011;11491;41.942;24.220;2023-09-19T02:50:57;8.57;;;7.32;;
22648;SDS011;11491;41.942;24.220;2023-09-19T02:53:26;8.02;;;6.72;;
22648;SDS011;11491;41.942;24.220;2023-09-19T02:55:53;8.80;;;7.60;;
22648;SDS011;11491;41.942;24.220;2023-09-19T02:58:19;8.82;;;7.40;;
22648;SDS011;11491;41.942;24.220;2023-09-19T03:00:48;9.32;;;7.13;;
22648;SDS011;11491;41.942;24.220;2023-09-19T03:03:16;8.63;;;7.30;;
22648;SDS011;11491;41.942;24.220;2023-09-19T03:05:44;12.65;;;8.95;;
22648;SDS011;11491;41.942;24.220;2023-09-19T03:08:12;12.93;;;9.43;;
22648;SDS011;11491;41.942;24.220;2023-09-19T03:10:41;11.25;;;8.15;;
22648;SDS011;11491;41.942;24.220;2023-09-19T03:13:08;9.07;;;8.05;;
22648;SDS011;11491;41.942;24.220;2023-09-19T03:15:36;17.65;;;12.98;;
22648;SDS011;11491;41.942;24.220;2023-09-19T03:18:04;19.02;;;13.93;;
22648;SDS011;11491;41.942;24.220;2023-09-19T03:20:31;18.88;;;14.10;;
22648;SDS011;11491;41.942;24.220;2023-09-19T03:22:57;15.65;;;12.65;;
22648;SDS011;11491;41.942;24.220;2023-09-19T03:25:25;12.45;;;9.80;;
22648;SDS011;11491;41.942;24.220;2023-09-19T03:27:54;13.05;;;9.95;;
22648;SDS011;11491;41.942;24.220;2023-09-19T03:30:23;12.45;;;9.93;;
22648;SDS011;11491;41.942;24.220;2023-09-19T03:32:50;10.35;;;8.88;;
22648;SDS011;11491;41.942;24.220;2023-09-19T03:35:17;11.90;;;9.75;;
22648;SDS011;11491;41.942;24.220;2023-09-19T03:37:44;15.20;;;11.80;;
22648;SDS011;11491;41.942;24.220;2023-09-19T03:40:11;12.82;;;11.18;;
22648;SDS011;11491;41.942;24.220;2023-09-19T03:42:39;13.13;;;10.32;;
22648;SDS011;11491;41.942;24.220;2023-09-19T03:45:08;15.93;;;10.80;;
22648;SDS011;11491;41.942;24.220;2023-09-19T03:47:37;12.77;;;9.95;;
22648;SDS011;11491;41.942;24.220;2023-09-19T03:50:04;14.50;;;10.50;;
22648;SDS011;11491;41.942;24.220;2023-09-19T03:52:33;11.57;;;9.20;;
22648;SDS011;11491;41.942;24.220;2023-09-19T03:55:00;11.43;;;8.75;;
22648;SDS011;11491;41.942;24.220;2023-09-19T03:57:29;12.02;;;9.80;;
22648;SDS011;11491;41.942;24.220;2023-09-19T03:59:56;10.13;;;8.13;;
22648;SDS011;11491;41.942;24.220;2023-09-19T04:02:24;11.27;;;7.97;;
22648;SDS011;11491;41.942;24.220;2023-09-19T04:04:51;10.75;;;8.57;;
22648;SDS011;11491;41.942;24.220;2023-09-19T04:07:18;11.90;;;8.35;;
22648;SDS011;11491;41.942;24.220;2023-09-19T04:09:47;11.00;;;8.50;;
22648;SDS011;11491;41.942;24.220;2023-09-19T04:12:14;11.35;;;8.60;;
22648;SDS011;11491;41.942;24.220;2023-09-19T04:14:42;9.80;;;8.73;;
22648;SDS011;11491;41.942;24.220;2023-09-19T04:17:08;11.57;;;9.43;;
22648;SDS011;11491;41.942;24.220;2023-09-19T04:19:37;14.77;;;10.20;;
22648;SDS011;11491;41.942;24.220;2023-09-19T04:22:04;15.20;;;10.27;;
22648;SDS011;11491;41.942;24.220;2023-09-19T04:24:31;14.02;;;9.00;;
22648;SDS011;11491;41.942;24.220;2023-09-19T04:26:59;16.83;;;13.38;;
22648;SDS011;11491;41.942;24.220;2023-09-19T04:29:25;15.75;;;12.20;;
22648;SDS011;11491;41.942;24.220;2023-09-19T04:31:54;14.68;;;12.38;;
22648;SDS011;11491;41.942;24.220;2023-09-19T04:34:22;12.85;;;11.18;;
22648;SDS011;11491;41.942;24.220;2023-09-19T04:36:50;16.02;;;11.85;;
22648;SDS011;11491;41.942;24.220;2023-09-19T04:39:17;16.45;;;13.32;;
22648;SDS011;11491;41.942;24.220;2023-09-19T04:41:44;17.20;;;13.32;;
22648;SDS011;11491;41.942;24.220;2023-09-19T04:44:13;36.97;;;32.97;;
22648;SDS011;11491;41.942;24.220;2023-09-19T04:46:39;24.10;;;21.30;;
22648;SDS011;11491;41.942;24.220;2023-09-19T04:49:06;19.15;;;16.02;;
22648;SDS011;11491;41.942;24.220;2023-09-19T04:51:33;19.92;;;14.45;;
22648;SDS011;11491;41.942;24.220;2023-09-19T04:54:02;17.23;;;14.13;;
22648;SDS011;11491;41.942;24.220;2023-09-19T04:56:30;16.67;;;14.30;;
22648;SDS011;11491;41.942;24.220;2023-09-19T04:58:57;18.52;;;15.35;;
22648;SDS011;11491;41.942;24.220;2023-09-19T05:01:25;20.92;;;16.08;;
22648;SDS011;11491;41.942;24.220;2023-09-19T05:03:52;22.73;;;19.02;;
22648;SDS011;11491;41.942;24.220;2023-09-19T05:06:18;23.05;;;18.63;;
22648;SDS011;11491;41.942;24.220;2023-09-19T05:08:46;25.13;;;17.00;;
22648;SDS011;11491;41.942;24.220;2023-09-19T05:11:16;18.92;;;15.32;;
22648;SDS011;11491;41.942;24.220;2023-09-19T05:13:43;17.10;;;14.00;;
22648;SDS011;11491;41.942;24.220;2023-09-19T05:16:10;17.10;;;13.00;;
22648;SDS011;11491;41.942;24.220;2023-09-19T05:18:37;13.40;;;11.70;;
22648;SDS011;11491;41.942;24.220;2023-09-19T05:21:04;11.98;;;9.95;;
22648;SDS011;11491;41.942;24.220;2023-09-19T05:23:31;12.30;;;9.85;;
22648;SDS011;11491;41.942;24.220;2023-09-19T05:25:58;11.23;;;9.65;;
22648;SDS011;11491;41.942;24.220;2023-09-19T05:28:26;17.27;;;13.45;;
22648;SDS011;11491;41.942;24.220;2023-09-19T05:30:57;16.52;;;12.77;;
22648;SDS011;11491;41.942;24.220;2023-09-19T05:33:27;15.30;;;12.35;;
22648;SDS011;11491;41.942;24.220;2023-09-19T05:35:56;18.58;;;12.13;;
22648;SDS011;11491;41.942;24.220;2023-09-19T05:38:23;22.73;;;17.98;;
22648;SDS011;11491;41.942;24.220;2023-09-19T05:40:52;20.60;;;16.27;;
22648;SDS011;11491;41.942;24.220;2023-09-19T05:43:19;23.33;;;14.80;;
22648;SDS011;11491;41.942;24.220;2023-09-19T05:45:47;28.98;;;21.77;;
22648;SDS011;11491;41.942;24.220;2023-09-19T05:48:17;28.55;;;18.42;;
22648;SDS011;11491;41.942;24.220;2023-09-19T05:50:44;16.42;;;12.63;;
22648;SDS011;11491;41.942;24.220;2023-09-19T05:53:13;16.00;;;12.65;;
22648;SDS011;11491;41.942;24.220;2023-09-19T05:55:41;13.95;;;11.38;;
22648;SDS011;11491;41.942;24.220;2023-09-19T05:58:08;14.60;;;11.93;;
22648;SDS011;11491;41.942;24.220;2023-09-19T06:00:35;18.58;;;11.55;;
22648;SDS011;11491;41.942;24.220;2023-09-19T06:03:03;22.23;;;16.13;;
22648;SDS011;11491;41.942;24.220;2023-09-19T06:05:31;13.55;;;10.90;;
22648;SDS011;11491;41.942;24.220;2023-09-19T06:07:58;10.02;;;8.32;;
22648;SDS011;11491;41.942;24.220;2023-09-19T06:10:25;12.98;;;9.77;;
22648;SDS011;11491;41.942;24.220;2023-09-19T06:12:53;11.85;;;9.57;;
22648;SDS011;11491;41.942;24.220;2023-09-19T06:15:20;10.85;;;9.32;;
22648;SDS011;11491;41.942;24.220;2023-09-19T06:17:50;14.88;;;10.20;;
22648;SDS011;11491;41.942;24.220;2023-09-19T06:20:21;14.75;;;9.48;;
22648;SDS011;11491;41.942;24.220;2023-09-19T06:22:50;13.35;;;11.13;;
22648;SDS011;11491;41.942;24.220;2023-09-19T06:25:17;16.85;;;13.52;;
22648;SDS011;11491;41.942;24.220;2023-09-19T06:27:45;10.88;;;9.65;;
22648;SDS011;11491;41.942;24.220;2023-09-19T06:30:12;10.55;;;7.93;;
22648;SDS011;11491;41.942;24.220;2023-09-19T06:32:39;12.57;;;10.88;;
22648;SDS011;11491;41.942;24.220;2023-09-19T06:35:09;22.48;;;15.18;;
22648;SDS011;11491;41.942;24.220;2023-09-19T06:37:37;16.25;;;9.98;;
22648;SDS011;11491;41.942;24.220;2023-09-19T06:40:06;12.18;;;7.95;;
22648;SDS011;11491;41.942;24.220;2023-09-19T06:42:38;12.07;;;7.72;;
22648;SDS011;11491;41.942;24.220;2023-09-19T06:45:06;9.10;;;7.28;;
22648;SDS011;11491;41.942;24.220;2023-09-19T06:47:34;8.52;;;7.15;;
22648;SDS011;11491;41.942;24.220;2023-09-19T06:50:00;9.23;;;7.93;;
22648;SDS011;11491;41.942;24.220;2023-09-19T06:52:30;10.15;;;7.95;;
22648;SDS011;11491;41.942;24.220;2023-09-19T06:54:59;16.23;;;7.75;;
22648;SDS011;11491;41.942;24.220;2023-09-19T06:57:28;8.90;;;8.00;;
22648;SDS011;11491;41.942;24.220;2023-09-19T06:59:55;11.90;;;8.60;;
22648;SDS011;11491;41.942;24.220;2023-09-19T07:02:22;12.30;;;10.57;;
22648;SDS011;11491;41.942;24.220;2023-09-19T07:04:49;10.85;;;7.68;;
22648;SDS011;11491;41.942;24.220;2023-09-19T07:07:15;89.40;;;46.80;;
22648;SDS011;11491;41.942;24.220;2023-09-19T07:09:42;31.80;;;18.17;;
22648;SDS011;11491;41.942;24.220;2023-09-19T07:12:10;16.15;;;10.52;;
22648;SDS011;11491;41.942;24.220;2023-09-19T07:14:38;8.48;;;7.07;;
22648;SDS011;11491;41.942;24.220;2023-09-19T07:17:05;29.23;;;26.33;;
22648;SDS011;11491;41.942;24.220;2023-09-19T07:19:32;13.52;;;11.82;;
22648;SDS011;11491;41.942;24.220;2023-09-19T07:21:59;9.75;;;8.65;;
22648;SDS011;11491;41.942;24.220;2023-09-19T07:24:27;11.88;;;7.90;;
22648;SDS011;11491;41.942;24.220;2023-09-19T07:26:54;9.85;;;7.75;;
22648;SDS011;11491;41.942;24.220;2023-09-19T07:29:22;9.50;;;6.93;;
22648;SDS011;11491;41.942;24.220;2023-09-19T07:31:51;16.52;;;13.63;;
22648;SDS011;11491;41.942;24.220;2023-09-19T07:34:18;9.20;;;6.70;;
22648;SDS011;11491;41.942;24.220;2023-09-19T07:36:46;6.90;;;6.03;;
22648;SDS011;11491;41.942;24.220;2023-09-19T07:39:12;7.22;;;6.53;;
22648;SDS011;11491;41.942;24.220;2023-09-19T07:41:39;11.27;;;6.75;;
22648;SDS011;11491;41.942;24.220;2023-09-19T07:44:07;7.43;;;6.00;;
22648;SDS011;11491;41.942;24.220;2023-09-19T07:46:36;8.30;;;5.70;;
22648;SDS011;11491;41.942;24.220;2023-09-19T07:49:03;12.48;;;6.53;;
22648;SDS011;11491;41.942;24.220;2023-09-19T07:51:30;8.07;;;5.93;;
22648;SDS011;11491;41.942;24.220;2023-09-19T07:53:58;6.50;;;5.55;;
22648;SDS011;11491;41.942;24.220;2023-09-19T07:56:24;6.85;;;5.80;;
22648;SDS011;11491;41.942;24.220;2023-09-19T07:58:52;6.10;;;5.50;;
22648;SDS011;11491;41.942;24.220;2023-09-19T08:01:19;8.57;;;5.40;;
22648;SDS011;11491;41.942;24.220;2023-09-19T08:03:50;6.18;;;5.05;;
22648;SDS011;11491;41.942;24.220;2023-09-19T08:06:17;15.18;;;12.65;;
22648;SDS011;11491;41.942;24.220;2023-09-19T08:08:44;6.85;;;5.78;;
22648;SDS011;11491;41.942;24.220;2023-09-19T08:11:10;7.03;;;5.18;;
22648;SDS011;11491;41.942;24.220;2023-09-19T08:13:37;5.85;;;4.38;;
22648;SDS011;11491;41.942;24.220;2023-09-19T08:16:08;4.85;;;4.22;;
22648;SDS011;11491;41.942;24.220;2023-09-19T08:18:36;6.97;;;5.18;;
22648;SDS011;11491;41.942;24.220;2023-09-19T08:21:06;5.10;;;4.50;;
22648;SDS011;11491;41.942;24.220;2023-09-19T09:37:38;5.15;;;3.88;;
22648;SDS011;11491;41.942;24.220;2023-09-19T09:40:06;6.70;;;4.10;;
22648;SDS011;11491;41.942;24.220;2023-09-19T09:42:44;5.78;;;4.40;;
22648;SDS011;11491;41.942;24.220;2023-09-19T09:45:13;5.05;;;4.55;;
22648;SDS011;11491;41.942;24.220;2023-09-19T09:47:45;8.02;;;4.20;;
22648;SDS011;11491;41.942;24.220;2023-09-19T09:50:25;5.40;;;4.43;;
22648;SDS011;11491;41.942;24.220;2023-09-19T09:53:06;7.43;;;4.30;;
22648;SDS011;11491;41.942;24.220;2023-09-19T09:55:59;7.13;;;4.63;;
22648;SDS011;11491;41.942;24.220;2023-09-19T09:58:28;6.63;;;4.93;;
22648;SDS011;11491;41.942;24.220;2023-09-19T10:00:58;8.45;;;4.43;;
22648;SDS011;11491;41.942;24.220;2023-09-19T10:03:35;6.30;;;4.97;;
22648;SDS011;11491;41.942;24.220;2023-09-19T10:06:06;5.68;;;4.75;;
22648;SDS011;11491;41.942;24.220;2023-09-19T10:09:01;10.82;;;7.15;;
22648;SDS011;11491;41.942;24.220;2023-09-19T10:11:37;8.88;;;5.93;;
22648;SDS011;11491;41.942;24.220;2023-09-19T10:14:08;6.93;;;4.95;;
22648;SDS011;11491;41.942;24.220;2023-09-19T10:16:38;5.93;;;4.28;;
22648;SDS011;11491;41.942;24.220;2023-09-19T10:19:12;7.32;;;4.80;;
22648;SDS011;11491;41.942;24.220;2023-09-19T10:21:43;5.28;;;4.68;;
22648;SDS011;11491;41.942;24.220;2023-09-19T10:24:12;7.30;;;4.82;;
22648;SDS011;11491;41.942;24.220;2023-09-19T10:26:42;8.27;;;5.00;;
22648;SDS011;11491;41.942;24.220;2023-09-19T10:29:11;6.93;;;4.82;;
22648;SDS011;11491;41.942;24.220;2023-09-19T10:31:42;6.05;;;4.60;;
22648;SDS011;11491;41.942;24.220;2023-09-19T10:34:13;8.00;;;5.05;;
22648;SDS011;11491;41.942;24.220;2023-09-19T10:36:42;7.47;;;5.90;;
22648;SDS011;11491;41.942;24.220;2023-09-19T10:39:14;5.70;;;4.47;;
22648;SDS011;11491;41.942;24.220;2023-09-19T10:41:47;9.38;;;4.13;;
22648;SDS011;11491;41.942;24.220;2023-09-19T10:44:21;11.90;;;4.75;;
22648;SDS011;11491;41.942;24.220;2023-09-19T10:46:50;12.23;;;5.05;;
22648;SDS011;11491;41.942;24.220;2023-09-19T10:49:18;9.00;;;4.68;;
22648;SDS011;11491;41.942;24.220;2023-09-19T10:51:46;8.43;;;5.38;;
22648;SDS011;11491;41.942;24.220;2023-09-19T10:54:17;7.78;;;4.65;;
22648;SDS011;11491;41.942;24.220;2023-09-19T10:56:48;8.37;;;4.97;;
22648;SDS011;11491;41.942;24.220;2023-09-19T10:59:18;8.80;;;5.90;;
22648;SDS011;11491;41.942;24.220;2023-09-19T11:01:46;7.72;;;5.22;;
22648;SDS011;11491;41.942;24.220;2023-09-19T11:04:23;5.35;;;4.38;;
22648;SDS011;11491;41.942;24.220;2023-09-19T11:07:01;13.63;;;4.78;;
22648;SDS011;11491;41.942;24.220;2023-09-19T11:09:46;6.07;;;4.72;;
22648;SDS011;11491;41.942;24.220;2023-09-19T11:18:51;9.20;;;5.13;;
22648;SDS011;11491;41.942;24.220;2023-09-19T11:24:30;6.55;;;4.75;;
22648;SDS011;11491;41.942;24.220;2023-09-19T11:27:15;5.78;;;4.97;;
22648;SDS011;11491;41.942;24.220;2023-09-19T11:29:43;5.65;;;4.90;;
22648;SDS011;11491;41.942;24.220;2023-09-19T11:32:10;7.30;;;5.45;;
22648;SDS011;11491;41.942;24.220;2023-09-19T11:34:38;12.40;;;10.77;;
22648;SDS011;11491;41.942;24.220;2023-09-19T11:40:13;8.40;;;7.10;;
22648;SDS011;11491;41.942;24.220;2023-09-19T11:42:43;8.95;;;6.20;;
22648;SDS011;11491;41.942;24.220;2023-09-19T11:48:23;7.97;;;5.32;;
22648;SDS011;11491;41.942;24.220;2023-09-19T11:50:51;9.57;;;5.57;;
22648;SDS011;11491;41.942;24.220;2023-09-19T11:53:19;8.98;;;5.65;;
22648;SDS011;11491;41.942;24.220;2023-09-19T11:55:47;5.97;;;5.38;;
22648;SDS011;11491;41.942;24.220;2023-09-19T11:58:17;7.32;;;5.20;;
22648;SDS011;11491;41.942;24.220;2023-09-19T12:00:45;7.32;;;5.20;;
22648;SDS011;11491;41.942;24.220;2023-09-19T12:03:13;7.47;;;5.50;;
22648;SDS011;11491;41.942;24.220;2023-09-19T12:05:40;5.68;;;4.57;;
22648;SDS011;11491;41.942;24.220;2023-09-19T12:08:07;7.95;;;5.70;;
22648;SDS011;11491;41.942;24.220;2023-09-19T12:10:43;7.43;;;5.18;;
22648;SDS011;11491;41.942;24.220;2023-09-19T12:13:16;6.35;;;5.15;;
22648;SDS011;11491;41.942;24.220;2023-09-19T12:15:43;6.00;;;4.75;;
22648;SDS011;11491;41.942;24.220;2023-09-19T12:18:25;6.45;;;5.05;;
22648;SDS011;11491;41.942;24.220;2023-09-19T12:20:53;9.00;;;5.00;;
22648;SDS011;11491;41.942;24.220;2023-09-19T12:23:20;5.78;;;4.85;;
22648;SDS011;11491;41.942;24.220;2023-09-19T12:25:47;5.45;;;4.43;;
22648;SDS011;11491;41.942;24.220;2023-09-19T12:28:19;7.47;;;4.60;;
22648;SDS011;11491;41.942;24.220;2023-09-19T12:30:48;12.02;;;5.05;;
22648;SDS011;11491;41.942;24.220;2023-09-19T12:33:16;8.70;;;5.00;;
22648;SDS011;11491;41.942;24.220;2023-09-19T12:35:45;8.52;;;7.22;;
22648;SDS011;11491;41.942;24.220;2023-09-19T12:38:21;8.93;;;6.15;;
22648;SDS011;11491;41.942;24.220;2023-09-19T12:40:49;6.78;;;5.40;;
22648;SDS011;11491;41.942;24.220;2023-09-19T12:43:19;7.00;;;4.82;;
22648;SDS011;11491;41.942;24.220;2023-09-19T12:45:47;6.28;;;5.00;;
22648;SDS011;11491;41.942;24.220;2023-09-19T12:48:20;10.70;;;6.93;;
22648;SDS011;11491;41.942;24.220;2023-09-19T12:51:01;6.70;;;4.72;;
22648;SDS011;11491;41.942;24.220;2023-09-19T12:53:31;10.98;;;4.90;;
22648;SDS011;11491;41.942;24.220;2023-09-19T12:55:59;6.25;;;5.30;;
22648;SDS011;11491;41.942;24.220;2023-09-19T12:58:27;10.57;;;5.05;;
22648;SDS011;11491;41.942;24.220;2023-09-19T13:00:55;8.35;;;4.82;;
22648;SDS011;11491;41.942;24.220;2023-09-19T13:03:25;8.77;;;4.80;;
22648;SDS011;11491;41.942;24.220;2023-09-19T13:05:54;6.03;;;4.55;;
22648;SDS011;11491;41.942;24.220;2023-09-19T13:08:23;10.35;;;7.22;;
22648;SDS011;11491;41.942;24.220;2023-09-19T13:11:07;6.35;;;4.53;;
22648;SDS011;11491;41.942;24.220;2023-09-19T13:13:39;6.45;;;5.43;;
22648;SDS011;11491;41.942;24.220;2023-09-19T13:16:09;6.88;;;5.75;;
22648;SDS011;11491;41.942;24.220;2023-09-19T13:18:43;10.88;;;7.82;;
22648;SDS011;11491;41.942;24.220;2023-09-19T13:21:11;10.95;;;9.05;;
22648;SDS011;11491;41.942;24.220;2023-09-19T13:23:47;7.90;;;6.22;;
22648;SDS011;11491;41.942;24.220;2023-09-19T13:26:14;5.45;;;4.85;;
22648;SDS011;11491;41.942;24.220;2023-09-19T13:28:42;5.25;;;4.70;;
22648;SDS011;11491;41.942;24.220;2023-09-19T13:31:09;6.68;;;4.57;;
22648;SDS011;11491;41.942;24.220;2023-09-19T13:33:42;6.57;;;5.47;;
22648;SDS011;11491;41.942;24.220;2023-09-19T13:36:09;9.02;;;4.72;;
22648;SDS011;11491;41.942;24.220;2023-09-19T13:38:37;6.18;;;4.82;;
22648;SDS011;11491;41.942;24.220;2023-09-19T13:41:04;4.97;;;4.47;;
22648;SDS011;11491;41.942;24.220;2023-09-19T13:43:31;6.88;;;5.40;;
22648;SDS011;11491;41.942;24.220;2023-09-19T13:46:01;8.05;;;6.10;;
22648;SDS011;11491;41.942;24.220;2023-09-19T13:48:28;7.32;;;5.80;;
22648;SDS011;11491;41.942;24.220;2023-09-19T13:50:55;9.15;;;5.40;;
22648;SDS011;11491;41.942;24.220;2023-09-19T13:53:22;7.00;;;5.75;;
22648;SDS011;11491;41.942;24.220;2023-09-19T13:55:51;8.35;;;4.97;;
22648;SDS011;11491;41.942;24.220;2023-09-19T13:58:17;9.05;;;6.30;;
22648;SDS011;11491;41.942;24.220;2023-09-19T14:00:46;6.70;;;6.10;;
22648;SDS011;11491;41.942;24.220;2023-09-19T14:03:14;7.20;;;4.55;;
22648;SDS011;11491;41.942;24.220;2023-09-19T14:05:41;9.38;;;6.85;;
22648;SDS011;11491;41.942;24.220;2023-09-19T14:08:08;6.97;;;5.68;;
22648;SDS011;11491;41.942;24.220;2023-09-19T14:10:35;11.10;;;7.57;;
22648;SDS011;11491;41.942;24.220;2023-09-19T14:13:01;7.38;;;5.72;;
22648;SDS011;11491;41.942;24.220;2023-09-19T14:15:28;8.95;;;5.03;;
22648;SDS011;11491;41.942;24.220;2023-09-19T14:18:00;7.80;;;6.60;;
22648;SDS011;11491;41.942;24.220;2023-09-19T14:20:28;7.05;;;4.68;;
22648;SDS011;11491;41.942;24.220;2023-09-19T14:22:55;9.13;;;7.22;;
22648;SDS011;11491;41.942;24.220;2023-09-19T14:25:23;7.65;;;5.53;;
22648;SDS011;11491;41.942;24.220;2023-09-19T14:27:50;10.48;;;5.80;;
22648;SDS011;11491;41.942;24.220;2023-09-19T14:30:17;11.43;;;6.68;;
22648;SDS011;11491;41.942;24.220;2023-09-19T14:32:44;9.10;;;6.50;;
22648;SDS011;11491;41.942;24.220;2023-09-19T14:35:11;9.52;;;5.97;;
22648;SDS011;11491;41.942;24.220;2023-09-19T14:37:40;7.45;;;5.90;;
22648;SDS011;11491;41.942;24.220;2023-09-19T14:40:07;9.65;;;6.78;;
22648;SDS011;11491;41.942;24.220;2023-09-19T14:42:35;8.90;;;6.18;;
22648;SDS011;11491;41.942;24.220;2023-09-19T14:45:05;12.23;;;7.63;;
22648;SDS011;11491;41.942;24.220;2023-09-19T14:47:32;6.75;;;4.88;;
22648;SDS011;11491;41.942;24.220;2023-09-19T14:50:00;25.90;;;14.73;;
22648;SDS011;11491;41.942;24.220;2023-09-19T14:52:31;15.90;;;10.15;;
22648;SDS011;11491;41.942;24.220;2023-09-19T14:55:00;13.13;;;7.70;;
22648;SDS011;11491;41.942;24.220;2023-09-19T14:57:28;8.57;;;4.97;;
22648;SDS011;11491;41.942;24.220;2023-09-19T14:59:55;8.80;;;5.40;;
22648;SDS011;11491;41.942;24.220;2023-09-19T15:02:22;7.13;;;5.60;;
22648;SDS011;11491;41.942;24.220;2023-09-19T15:04:48;7.35;;;4.72;;
22648;SDS011;11491;41.942;24.220;2023-09-19T15:07:16;6.93;;;4.32;;
22648;SDS011;11491;41.942;24.220;2023-09-19T15:09:42;5.10;;;4.35;;
22648;SDS011;11491;41.942;24.220;2023-09-19T15:12:12;6.13;;;4.50;;
22648;SDS011;11491;41.942;24.220;2023-09-19T15:14:40;6.18;;;4.90;;
22648;SDS011;11491;41.942;24.220;2023-09-19T15:17:07;7.22;;;4.45;;
22648;SDS011;11491;41.942;24.220;2023-09-19T15:19:34;10.65;;;4.80;;
22648;SDS011;11491;41.942;24.220;2023-09-19T15:22:02;7.13;;;4.68;;
22648;SDS011;11491;41.942;24.220;2023-09-19T15:24:30;5.82;;;4.80;;
22648;SDS011;11491;41.942;24.220;2023-09-19T15:26:57;6.95;;;5.00;;
22648;SDS011;11491;41.942;24.220;2023-09-19T15:29:25;6.18;;;4.45;;
22648;SDS011;11491;41.942;24.220;2023-09-19T15:31:54;9.18;;;4.97;;
22648;SDS011;11491;41.942;24.220;2023-09-19T15:34:22;6.40;;;5.13;;
22648;SDS011;11491;41.942;24.220;2023-09-19T15:36:49;8.45;;;5.03;;
22648;SDS011;11491;41.942;24.220;2023-09-19T15:39:16;7.93;;;4.75;;
22648;SDS011;11491;41.942;24.220;2023-09-19T15:41:44;7.50;;;5.32;;
22648;SDS011;11491;41.942;24.220;2023-09-19T15:44:13;9.48;;;5.22;;
22648;SDS011;11491;41.942;24.220;2023-09-19T15:46:42;11.18;;;5.25;;
22648;SDS011;11491;41.942;24.220;2023-09-19T15:49:10;7.53;;;5.43;;
22648;SDS011;11491;41.942;24.220;2023-09-19T15:51:37;8.82;;;5.43;;
22648;SDS011;11491;41.942;24.220;2023-09-19T15:54:07;7.40;;;5.18;;
22648;SDS011;11491;41.942;24.220;2023-09-19T15:56:36;9.60;;;5.40;;
22648;SDS011;11491;41.942;24.220;2023-09-19T15:59:03;9.38;;;5.35;;
22648;SDS011;11491;41.942;24.220;2023-09-19T16:01:30;7.90;;;6.25;;
22648;SDS011;11491;41.942;24.220;2023-09-19T16:03:58;7.60;;;5.75;;
22648;SDS011;11491;41.942;24.220;2023-09-19T16:06:26;8.13;;;5.60;;
22648;SDS011;11491;41.942;24.220;2023-09-19T16:08:54;7.63;;;6.47;;
22648;SDS011;11491;41.942;24.220;2023-09-19T16:11:23;6.25;;;5.65;;